Overview Statistics Trail Chart Weather Telemetry Raw packets
 

This is the latest recevied weather packets stored in our database for station/object SP2CDN-10. If no packets are shown the sender has not sent any weather packets the latest 10 day(s).

<< 1 2 3 4 >>
Time Temp. Humidity Pressure Rain* Wind** Luminosity Snow
1788711537 20° C 55% 1022.8 hPa - - - -
1788709255 21.11° C 51% 1022.6 hPa - - - -
1788706978 22.22° C 49% 1022.2 hPa - - - -
1788704692 20.56° C 53% 1022 hPa - - - -
1788702411 21.67° C 49% 1021.8 hPa - - - -
1788701038 21.67° C 51% 1021.5 hPa - - - -
1788698756 19.44° C 59% 1021.4 hPa - - - -
1788696475 18.33° C 65% 1021.1 hPa - - - -
1788694229 19.44° C 62% 1020.6 hPa - - - -
1788691912 17.78° C 69% 1020.5 hPa - - - -
1788689630 17.78° C 75% 1020 hPa - - - -
1788687348 17.78° C 76% 1019.6 hPa - - - -
1788685067 16.11° C 84% 1019.4 hPa - - - -
1788682785 14.44° C 92% 1019 hPa - - - -
1788680504 14.44° C 94% 1018.6 hPa - - - -
1788678227 13.89° C 96% 1017.8 hPa - - - -
1788675940 13.89° C 99% 1017.5 hPa - - - -
1788673658 12.78° C 98% 1016.7 hPa - - - -
1788671376 12.78° C 97% 1016.2 hPa - - - -
1788669095 12.78° C 95% 1015.6 hPa - - - -
1788666813 12.22° C 99% 1015.1 hPa - - - -
1788664532 12.78° C 99% 1014.7 hPa - - - -
1788662252 12.22° C 100% 1014.5 hPa - - - -
1788659968 12.22° C 100% 1014.5 hPa - - - -
1788657686 12.22° C 100% 1014.3 hPa - - - -

* Rain since midnight (hover to see other rain measurements)
** Current wind speed in m/s (hover to see current wind gust speed)